Terminal Aerodrome Forecast
Issued by NWS

Home | Current Version | Previous Version | Graphics & Text | Print | Product List | Glossary On
Versions: 1 2 3 4 5 6 7 8 9 10 11 12 13 14 15 16 17
228
FTUS43 KGRB 251732
TAFATW
TAF
KATW 251732Z 2518/2618 16013G18KT P6SM SCT015 BKN100
      TEMPO 2518/2520 4SM -SHRA BR BKN015
     FM252000 18012G18KT 5SM -SHRA BR SCT015 BKN070
      TEMPO 2520/2524 2SM -TSRA BR BKN015CB
     FM260000 20010KT 5SM -SHRA BR SCT010 BKN040 OVC140
     FM260300 26012KT P6SM SCT025 BKN140
     FM260800 26012G17KT P6SM SCT025 BKN200
     FM261500 26014G22KT P6SM VCSH BKN035 OVC050=

USA.gov is the U.S. government's official web portal to all federal, state and local government web resources and services.